sim
Sign-in with your pilot id or email,
or register
Callsign
Passwort

Schedule Details

Flight Number: OEO3490
Departure: Cologne Bonn Airport (EDDK) at 04:15
Arrival: Thessaloniki International Airport (LGTS) at 06:55

Weather Information
Getting current METAR information for EDDK 192150Z 08008KT CAVOK 17/03 Q1028 NOSIG
Getting current METAR information for LGTS 192150Z 03005KT 9999 FEW020 13/09 Q1023 NOSIG

Schedule Frequency

Route Map